KCGZ/CGZ METAR and TAF weather

Enter ICAO airport designator
Station Type Date Time Source
KCGZ METAR 2018/12/12 04:56 UTC NOAA

KCGZ 120456Z AUTO 00000KT 10SM CLR 10/04 A3004 RMK AO2 SLP171 T01000044 $


Station Type Date Time Source
KCGZ Decoded METAR 2018/12/12 04:56 UTC NOAA

Casa Grande, Casa Grande Municipal Airport, AZ, United States (KCGZ) 32-57N 111-46W
Dec 11, 2018 - 11:56 PM EST / 2018.12.12 0456 UTC
Wind: Calm:0
Visibility: 10 mile(s):0
Sky conditions: clear
Temperature: 50.0 F (10.0 C)
Dew Point: 39.9 F (4.4 C)
Relative Humidity: 68%
Pressure (altimeter): 30.04 in. Hg (1017 hPa)
ob: KCGZ 120456Z AUTO 00000KT 10SM CLR 10/04 A3004 RMK AO2 SLP171 T01000044
cycle: 5

Station Type Date Time Source
KCGZ TAF UTC NOAA

Error!


Example: see airport list